createdAt,value
2019-05-11T00:00:16.470Z,7.96
2019-05-11T00:02:44.757Z,7.96
2019-05-11T00:05:13.197Z,7.92
2019-05-11T00:07:41.591Z,7.91
2019-05-11T00:10:09.903Z,7.88
2019-05-11T00:12:38.253Z,7.91
2019-05-11T00:15:06.634Z,7.95
2019-05-11T00:17:34.937Z,7.94
2019-05-11T00:20:03.620Z,7.95
2019-05-11T00:22:31.921Z,7.95
2019-05-11T00:25:00.219Z,7.95
2019-05-11T00:27:28.562Z,7.97
2019-05-11T00:29:56.834Z,7.97
2019-05-11T00:32:25.118Z,7.89
2019-05-11T00:34:53.603Z,7.87
2019-05-11T00:37:21.977Z,7.88
2019-05-11T00:39:50.258Z,7.88
2019-05-11T00:42:18.596Z,7.86
2019-05-11T00:44:47.587Z,7.85
2019-05-11T00:47:15.964Z,7.87
2019-05-11T00:49:44.286Z,7.91
2019-05-11T00:52:12.628Z,7.92
2019-05-11T00:54:41.040Z,7.93
2019-05-11T00:57:09.313Z,7.93
2019-05-11T00:59:37.597Z,7.91
2019-05-11T01:02:06.087Z,7.88
2019-05-11T01:04:34.378Z,7.90
2019-05-11T01:07:02.783Z,7.92
2019-05-11T01:09:31.131Z,7.91
2019-05-11T01:11:59.462Z,7.86
2019-05-11T01:14:27.841Z,7.87
2019-05-11T01:16:56.252Z,7.88
2019-05-11T01:19:24.587Z,7.89
2019-05-11T01:21:52.885Z,7.87
2019-05-11T01:24:21.261Z,7.85
2019-05-11T01:26:49.635Z,7.80
2019-05-11T01:29:18.055Z,7.80
2019-05-11T01:31:46.696Z,7.74
2019-05-11T01:34:15.119Z,7.72
2019-05-11T01:36:43.457Z,7.68
2019-05-11T01:39:12.445Z,7.67
2019-05-11T01:41:40.749Z,7.60
2019-05-11T01:44:09.078Z,7.57
2019-05-11T01:46:37.362Z,7.55
2019-05-11T01:49:05.637Z,7.50
2019-05-11T01:51:33.974Z,7.45
2019-05-11T01:54:02.758Z,7.42
2019-05-11T01:56:31.016Z,7.40
2019-05-11T01:58:59.452Z,7.40
2019-05-11T02:01:27.784Z,7.38
2019-05-11T02:03:56.078Z,7.37
2019-05-11T02:06:24.417Z,7.34
2019-05-11T02:08:52.794Z,7.32
2019-05-11T02:11:21.516Z,7.27
2019-05-11T02:13:49.897Z,7.27
2019-05-11T02:16:18.185Z,7.22
2019-05-11T02:18:46.527Z,7.22
2019-05-11T02:21:14.894Z,7.21
2019-05-11T02:23:44.239Z,7.17
2019-05-11T02:26:12.541Z,7.16
2019-05-11T02:28:40.821Z,7.11
2019-05-11T02:31:09.278Z,7.07
2019-05-11T02:33:37.621Z,7.05
2019-05-11T02:36:05.897Z,7.08
2019-05-11T02:38:34.308Z,7.09
2019-05-11T02:41:02.587Z,7.08
2019-05-11T02:43:30.924Z,7.08
2019-05-11T02:45:59.207Z,7.08
2019-05-11T02:48:27.480Z,6.99
2019-05-11T02:50:55.953Z,6.98
2019-05-11T02:53:24.245Z,6.96
2019-05-11T02:55:52.654Z,6.95
2019-05-11T02:58:20.981Z,6.97
2019-05-11T03:00:49.409Z,6.98
2019-05-11T03:03:17.766Z,6.94
2019-05-11T03:05:46.279Z,6.88
2019-05-11T03:08:14.623Z,6.83
2019-05-11T03:10:42.921Z,6.78
2019-05-11T03:13:11.359Z,6.77
2019-05-11T03:15:39.618Z,6.73
2019-05-11T03:18:07.942Z,6.71
2019-05-11T03:20:36.252Z,6.69
2019-05-11T03:23:04.530Z,6.65
2019-05-11T03:25:33.020Z,6.64
2019-05-11T03:28:01.302Z,6.64
2019-05-11T03:30:29.668Z,6.63
2019-05-11T03:32:57.973Z,6.63
2019-05-11T03:35:26.257Z,6.60
2019-05-11T03:37:54.739Z,6.57
2019-05-11T03:40:22.980Z,6.53
2019-05-11T03:42:51.456Z,6.53
2019-05-11T03:45:19.780Z,6.50
2019-05-11T03:47:48.342Z,6.48
2019-05-11T03:50:16.620Z,6.42
2019-05-11T03:52:44.944Z,6.39
2019-05-11T03:55:13.227Z,6.38
2019-05-11T03:57:41.587Z,6.34
2019-05-11T04:00:10.038Z,6.29
2019-05-11T04:02:38.647Z,6.25
2019-05-11T04:05:07.107Z,6.25
2019-05-11T04:07:35.444Z,6.21
2019-05-11T04:10:05.987Z,6.15
2019-05-11T04:12:35.606Z,6.11
2019-05-11T04:15:06.354Z,6.10
2019-05-11T04:17:34.976Z,6.10
2019-05-11T04:20:04.071Z,6.09
2019-05-11T04:22:32.361Z,6.12
2019-05-11T04:25:00.758Z,6.12
2019-05-11T04:27:29.040Z,6.16
2019-05-11T04:29:57.395Z,6.18
2019-05-11T04:32:25.726Z,6.08
2019-05-11T04:34:54.033Z,6.08
2019-05-11T04:37:22.452Z,6.15
2019-05-11T04:39:50.741Z,6.15
2019-05-11T04:42:19.067Z,6.16
2019-05-11T04:44:51.897Z,6.16
2019-05-11T04:47:17.481Z,6.19
2019-05-11T04:49:45.888Z,6.19
2019-05-11T04:52:14.347Z,6.23
2019-05-11T04:54:42.630Z,6.29
2019-05-11T04:57:10.992Z,6.29
2019-05-11T04:59:39.280Z,6.28
2019-05-11T05:02:07.611Z,6.30
2019-05-11T05:04:35.916Z,6.32
2019-05-11T05:07:05.442Z,6.36
2019-05-11T05:09:36.233Z,6.40
2019-05-11T05:12:08.544Z,6.40
2019-05-11T05:14:34.936Z,6.52
2019-05-11T05:17:03.274Z,6.59
2019-05-11T05:19:31.674Z,6.67
2019-05-11T05:22:00.013Z,6.73
2019-05-11T05:24:28.315Z,6.79
2019-05-11T05:26:56.649Z,6.85
2019-05-11T05:29:24.955Z,6.87
2019-05-11T05:31:54.014Z,6.88
2019-05-11T05:34:22.415Z,6.93
2019-05-11T05:36:50.710Z,6.98
2019-05-11T05:39:18.987Z,7.03
2019-05-11T05:41:56.502Z,7.08
2019-05-11T05:44:17.556Z,7.12
2019-05-11T05:46:45.876Z,7.19
2019-05-11T05:49:14.287Z,7.24
2019-05-11T05:51:42.601Z,7.27
2019-05-11T05:54:10.885Z,7.39
2019-05-11T05:56:39.404Z,7.47
2019-05-11T05:59:08.052Z,7.55
2019-05-11T06:01:36.431Z,7.68
2019-05-11T06:04:04.754Z,7.81
2019-05-11T06:06:33.187Z,7.96
2019-05-11T06:09:01.684Z,8.13
2019-05-11T06:11:29.961Z,8.30
2019-05-11T06:13:58.330Z,8.46
2019-05-11T06:16:27.111Z,8.56
2019-05-11T06:18:55.396Z,8.62
2019-05-11T06:21:24.346Z,8.66
2019-05-11T06:23:52.660Z,8.74
2019-05-11T06:26:23.481Z,8.87
2019-05-11T06:28:51.721Z,8.96
2019-05-11T06:31:20.921Z,9.11
2019-05-11T06:33:49.386Z,9.15
2019-05-11T06:36:17.671Z,9.18
2019-05-11T06:38:45.959Z,9.17
2019-05-11T06:41:14.289Z,9.17
2019-05-11T06:43:42.776Z,9.22
2019-05-11T06:46:11.155Z,9.27
2019-05-11T06:48:39.420Z,9.19
2019-05-11T06:51:07.836Z,9.16
2019-05-11T06:53:36.148Z,9.17
2019-05-11T06:56:04.502Z,9.16
2019-05-11T06:58:32.758Z,9.17
2019-05-11T07:01:01.036Z,9.20
2019-05-11T07:03:29.352Z,9.27
2019-05-11T07:05:57.670Z,9.42
2019-05-11T07:08:26.078Z,9.57
2019-05-11T07:10:54.424Z,9.72
2019-05-11T07:13:22.808Z,9.88
2019-05-11T07:15:51.137Z,10.00
2019-05-11T07:18:19.430Z,10.13
2019-05-11T07:20:50.870Z,10.24
2019-05-11T07:23:17.760Z,10.31
2019-05-11T07:25:46.053Z,10.34
2019-05-11T07:28:14.445Z,10.42
2019-05-11T07:30:42.761Z,10.56
2019-05-11T07:33:11.058Z,10.64
2019-05-11T07:35:39.471Z,10.81
2019-05-11T07:38:08.383Z,11.01
2019-05-11T07:40:38.450Z,11.19
2019-05-11T07:43:09.732Z,11.30
2019-05-11T07:45:38.661Z,11.37
2019-05-11T07:48:08.027Z,11.46
2019-05-11T07:50:38.730Z,11.61
2019-05-11T07:53:08.163Z,11.77
2019-05-11T07:55:38.492Z,11.94
2019-05-11T07:58:08.019Z,12.01
2019-05-11T08:00:39.595Z,12.11
2019-05-11T08:03:08.848Z,12.22
2019-05-11T08:05:38.561Z,12.31
2019-05-11T08:08:08.706Z,12.43
2019-05-11T08:10:39.094Z,12.47
2019-05-11T08:13:09.134Z,12.54
2019-05-11T08:15:38.544Z,12.60
2019-05-11T08:18:08.570Z,12.65
2019-05-11T08:20:38.557Z,12.72
2019-05-11T08:23:09.108Z,12.82
2019-05-11T08:25:37.935Z,12.89
2019-05-11T08:28:11.564Z,13.03
2019-05-11T08:30:38.161Z,13.18
2019-05-11T08:33:08.652Z,13.34
2019-05-11T08:35:38.812Z,13.50
2019-05-11T08:38:08.790Z,13.69
2019-05-11T08:40:37.946Z,13.72
2019-05-11T08:43:08.630Z,13.83
2019-05-11T08:45:39.107Z,13.76
2019-05-11T08:48:08.146Z,13.77
2019-05-11T08:50:38.294Z,13.79
2019-05-11T08:53:08.648Z,13.76
2019-05-11T08:55:38.198Z,13.85
2019-05-11T08:58:07.917Z,13.94
2019-05-11T09:00:38.768Z,14.02
2019-05-11T09:03:08.522Z,14.06
2019-05-11T09:05:38.482Z,13.98
2019-05-11T09:08:08.241Z,14.04
2019-05-11T09:10:39.539Z,14.20
2019-05-11T09:13:08.064Z,14.37
2019-05-11T09:15:40.249Z,14.32
2019-05-11T09:18:08.386Z,14.22
2019-05-11T09:20:37.827Z,14.34
2019-05-11T09:23:08.222Z,14.34
2019-05-11T09:25:38.535Z,14.32
2019-05-11T09:28:08.193Z,14.39
2019-05-11T09:30:37.801Z,14.46
2019-05-11T09:33:08.422Z,14.73
2019-05-11T09:35:47.543Z,14.65
2019-05-11T09:38:08.068Z,14.50
2019-05-11T09:40:38.534Z,14.48
2019-05-11T09:43:08.548Z,14.49
2019-05-11T09:45:45.858Z,14.65
2019-05-11T09:48:08.562Z,14.90
2019-05-11T09:50:38.753Z,15.15
2019-05-11T09:53:08.490Z,15.32
2019-05-11T09:55:38.851Z,15.38
2019-05-11T09:58:08.497Z,15.24
2019-05-11T10:00:38.860Z,15.21
2019-05-11T10:03:08.189Z,15.15
2019-05-11T10:05:38.284Z,15.15
2019-05-11T10:08:07.909Z,15.41
2019-05-11T10:10:38.341Z,15.56
2019-05-11T10:13:08.075Z,15.91
2019-05-11T10:15:38.546Z,16.10
2019-05-11T10:18:08.192Z,16.02
2019-05-11T10:20:39.042Z,15.79
2019-05-11T10:23:08.338Z,15.84
2019-05-11T10:25:38.811Z,15.72
2019-05-11T10:28:08.720Z,15.87
2019-05-11T10:30:38.556Z,16.05
2019-05-11T10:33:08.261Z,16.36
2019-05-11T10:35:37.816Z,16.70
2019-05-11T10:38:08.828Z,16.89
2019-05-11T10:40:38.732Z,16.97
2019-05-11T10:43:07.929Z,16.83
2019-05-11T10:45:37.861Z,16.51
2019-05-11T10:48:08.646Z,16.22
2019-05-11T10:50:38.114Z,16.22
2019-05-11T10:53:08.016Z,16.24
2019-05-11T10:55:38.653Z,16.03
2019-05-11T10:58:08.630Z,16.30
2019-05-11T11:00:38.872Z,16.67
2019-05-11T11:03:08.484Z,16.86
2019-05-11T11:05:38.430Z,16.92
2019-05-11T11:08:11.234Z,16.84
2019-05-11T11:10:39.589Z,16.98
2019-05-11T11:13:08.446Z,17.15
2019-05-11T11:15:38.078Z,16.95
2019-05-11T11:18:08.615Z,16.61
2019-05-11T11:20:38.382Z,16.57
2019-05-11T11:23:08.820Z,16.83
2019-05-11T11:25:37.639Z,16.95
2019-05-11T11:28:08.496Z,17.08
2019-05-11T11:30:37.898Z,17.03
2019-05-11T11:33:07.956Z,16.70
2019-05-11T11:35:38.517Z,16.83
2019-05-11T11:38:08.595Z,17.10
2019-05-11T11:40:38.552Z,17.33
2019-05-11T11:43:08.623Z,17.45
2019-05-11T11:45:38.134Z,17.62
2019-05-11T11:48:08.663Z,17.82
2019-05-11T11:50:37.744Z,17.93
2019-05-11T11:53:08.440Z,18.10
2019-05-11T11:55:39.029Z,18.13
2019-05-11T11:58:08.383Z,18.23
2019-05-11T12:00:39.073Z,17.95
2019-05-11T12:03:07.982Z,18.18
2019-05-11T12:05:38.734Z,18.31
2019-05-11T12:08:08.313Z,18.24
2019-05-11T12:10:37.979Z,18.12
2019-05-11T12:13:08.457Z,18.17
2019-05-11T12:15:38.577Z,18.41
2019-05-11T12:18:08.247Z,18.68
2019-05-11T12:20:38.775Z,18.70
2019-05-11T12:23:08.754Z,18.83
2019-05-11T12:25:40.293Z,18.42
2019-05-11T12:28:08.019Z,18.54
2019-05-11T12:30:37.647Z,18.57
2019-05-11T12:33:08.097Z,18.27
2019-05-11T12:35:37.794Z,17.96
2019-05-11T12:38:07.801Z,17.55
2019-05-11T12:40:38.686Z,17.63
2019-05-11T12:43:08.201Z,17.83
2019-05-11T12:45:37.660Z,18.17
2019-05-11T12:48:06.229Z,18.55
2019-05-11T12:50:34.743Z,18.45
2019-05-11T12:53:03.046Z,18.56
2019-05-11T12:55:32.788Z,18.85
2019-05-11T12:58:01.178Z,19.07
2019-05-11T13:00:31.366Z,19.19
2019-05-11T13:03:00.031Z,19.08
2019-05-11T13:05:28.668Z,19.18
2019-05-11T13:07:58.650Z,19.19
2019-05-11T13:10:28.209Z,19.12
2019-05-11T13:12:58.198Z,19.05
2019-05-11T13:15:28.164Z,19.26
2019-05-11T13:17:58.157Z,19.53
2019-05-11T13:20:28.525Z,19.50
2019-05-11T13:22:58.575Z,19.34
2019-05-11T13:25:28.239Z,19.31
2019-05-11T13:27:58.161Z,19.28
2019-05-11T13:30:27.831Z,19.26
2019-05-11T13:32:58.018Z,19.26
2019-05-11T13:35:28.498Z,19.19
2019-05-11T13:37:58.494Z,19.26
2019-05-11T13:40:27.766Z,19.49
2019-05-11T13:42:58.187Z,19.49
2019-05-11T13:45:28.237Z,19.64
2019-05-11T13:47:59.193Z,19.74
2019-05-11T13:50:26.394Z,19.18
2019-05-11T13:52:54.721Z,18.99
2019-05-11T13:55:23.036Z,18.65
2019-05-11T13:57:51.333Z,18.39
2019-05-11T14:00:19.802Z,18.52
2019-05-11T14:02:48.708Z,18.61
2019-05-11T14:05:18.076Z,18.55
2019-05-11T14:07:48.279Z,18.53
2019-05-11T14:10:18.108Z,18.51
2019-05-11T14:12:47.725Z,18.74
2019-05-11T14:15:18.823Z,18.96
2019-05-11T14:17:48.568Z,19.13
2019-05-11T14:20:18.966Z,18.99
2019-05-11T14:22:47.920Z,18.40
2019-05-11T14:25:18.526Z,18.29
2019-05-11T14:27:47.809Z,17.91
2019-05-11T14:30:18.419Z,17.99
2019-05-11T14:32:47.796Z,18.05
2019-05-11T14:35:18.609Z,18.25
2019-05-11T14:37:48.503Z,18.30
2019-05-11T14:40:17.784Z,18.37
2019-05-11T14:42:48.753Z,18.22
2019-05-11T14:45:18.508Z,17.97
2019-05-11T14:47:47.797Z,17.87
2019-05-11T14:50:18.577Z,17.93
2019-05-11T14:52:48.841Z,18.17
2019-05-11T14:55:18.443Z,18.43
2019-05-11T14:57:48.635Z,18.55
2019-05-11T15:00:18.525Z,18.63
2019-05-11T15:02:49.295Z,18.63
2019-05-11T15:05:18.181Z,18.53
2019-05-11T15:07:47.926Z,18.54
2019-05-11T15:10:18.816Z,18.40
2019-05-11T15:12:48.880Z,18.46
2019-05-11T15:15:18.741Z,18.36
2019-05-11T15:17:49.373Z,18.41
2019-05-11T15:20:17.861Z,18.54
2019-05-11T15:22:48.613Z,18.56
2019-05-11T15:25:19.304Z,18.54
2019-05-11T15:27:48.706Z,18.37
2019-05-11T15:30:18.263Z,18.15
2019-05-11T15:32:48.175Z,17.98
2019-05-11T15:35:18.705Z,17.89
2019-05-11T15:37:47.927Z,17.72
2019-05-11T15:40:18.826Z,17.51
2019-05-11T15:42:48.618Z,17.55
2019-05-11T15:45:18.603Z,17.57
2019-05-11T15:47:48.695Z,17.66
2019-05-11T15:50:18.920Z,17.56
2019-05-11T15:52:48.768Z,17.38
2019-05-11T15:55:18.817Z,17.37
2019-05-11T15:57:48.286Z,17.27
2019-05-11T16:00:16.972Z,16.97
2019-05-11T16:02:45.374Z,16.75
2019-05-11T16:05:14.429Z,16.74
2019-05-11T16:07:42.893Z,16.49
2019-05-11T16:10:11.201Z,16.49
2019-05-11T16:12:39.497Z,16.37
2019-05-11T16:15:09.334Z,16.41
2019-05-11T16:17:40.142Z,16.40
2019-05-11T16:20:10.776Z,16.19
2019-05-11T16:22:39.093Z,16.08
2019-05-11T16:25:08.530Z,16.04
2019-05-11T16:27:37.920Z,15.93
2019-05-11T16:30:10.327Z,15.71
2019-05-11T16:32:38.800Z,15.41
2019-05-11T16:35:08.823Z,15.37
2019-05-11T16:37:38.034Z,15.09
2019-05-11T16:40:07.462Z,15.04
2019-05-11T16:42:35.791Z,15.08
2019-05-11T16:45:05.409Z,15.32
2019-05-11T16:47:33.737Z,15.21
2019-05-11T16:50:02.138Z,15.25
2019-05-11T16:52:30.414Z,15.27
2019-05-11T16:54:58.748Z,15.36
2019-05-11T16:57:26.998Z,15.06
2019-05-11T16:59:55.590Z,14.98
2019-05-11T17:02:23.889Z,14.74
2019-05-11T17:04:52.208Z,14.69
2019-05-11T17:07:20.474Z,14.69
2019-05-11T17:09:48.902Z,14.70
2019-05-11T17:12:18.010Z,14.70
2019-05-11T17:14:59.231Z,14.77
2019-05-11T17:17:27.885Z,14.80
2019-05-11T17:19:58.753Z,14.78
2019-05-11T17:22:28.196Z,14.67
2019-05-11T17:24:58.788Z,14.47
2019-05-11T17:27:28.564Z,14.40
2019-05-11T17:29:59.150Z,14.36
2019-05-11T17:32:29.194Z,14.19
2019-05-11T17:34:58.106Z,13.93
2019-05-11T17:37:28.552Z,13.66
2019-05-11T17:39:58.536Z,13.46
2019-05-11T17:42:26.546Z,13.23
2019-05-11T17:44:54.953Z,13.07
2019-05-11T17:47:23.803Z,12.91
2019-05-11T17:49:59.571Z,12.78
2019-05-11T17:52:22.219Z,12.66
2019-05-11T17:54:50.670Z,12.58
2019-05-11T17:57:18.914Z,12.54
2019-05-11T17:59:47.631Z,12.52
2019-05-11T18:02:18.053Z,12.37
2019-05-11T18:04:46.383Z,12.39
2019-05-11T18:07:25.214Z,12.30
2019-05-11T18:09:44.683Z,12.15
2019-05-11T18:12:13.031Z,12.13
2019-05-11T18:14:41.311Z,12.03
2019-05-11T18:17:10.386Z,11.93
2019-05-11T18:19:38.877Z,11.94
2019-05-11T18:22:08.286Z,11.86
2019-05-11T18:24:38.331Z,11.77
2019-05-11T18:27:08.337Z,11.63
2019-05-11T18:29:38.022Z,11.48
2019-05-11T18:32:06.524Z,11.43
2019-05-11T18:34:34.939Z,11.36
2019-05-11T18:37:03.216Z,11.39
2019-05-11T18:39:31.663Z,11.37
2019-05-11T18:41:59.968Z,11.32
2019-05-11T18:44:28.240Z,11.25
2019-05-11T18:46:59.095Z,11.21
2019-05-11T18:49:28.541Z,11.24
2019-05-11T18:51:58.644Z,11.17
2019-05-11T18:54:27.732Z,11.18
2019-05-11T18:56:56.238Z,11.08
2019-05-11T18:59:25.476Z,11.00
2019-05-11T19:01:53.783Z,10.98
2019-05-11T19:04:22.191Z,11.00
2019-05-11T19:06:50.494Z,10.93
2019-05-11T19:09:18.884Z,10.89
2019-05-11T19:11:48.954Z,10.85
2019-05-11T19:14:17.366Z,10.80
2019-05-11T19:16:45.669Z,10.75
2019-05-11T19:19:14.064Z,10.74
2019-05-11T19:21:42.415Z,10.69
2019-05-11T19:24:10.714Z,10.65
2019-05-11T19:26:39.062Z,10.67
2019-05-11T19:29:08.926Z,10.59
2019-05-11T19:31:38.561Z,10.58
2019-05-11T19:34:09.138Z,10.50
2019-05-11T19:36:38.200Z,10.50
2019-05-11T19:39:08.826Z,10.46
2019-05-11T19:41:37.458Z,10.41
2019-05-11T19:44:08.392Z,10.36
2019-05-11T19:46:38.862Z,10.30
2019-05-11T19:49:08.660Z,10.25
2019-05-11T19:51:42.059Z,10.23
2019-05-11T19:54:08.473Z,10.21
2019-05-11T19:56:38.376Z,10.18
2019-05-11T19:59:08.563Z,10.17
2019-05-11T20:01:37.165Z,10.13
2019-05-11T20:04:05.491Z,10.14
2019-05-11T20:06:33.809Z,10.15
2019-05-11T20:09:02.220Z,10.19
2019-05-11T20:11:30.527Z,10.15
2019-05-11T20:13:59.107Z,10.11
2019-05-11T20:16:27.434Z,10.07
2019-05-11T20:18:57.692Z,10.02
2019-05-11T20:21:25.729Z,9.99
2019-05-11T20:23:54.520Z,9.93
2019-05-11T20:26:22.793Z,9.91
2019-05-11T20:28:51.096Z,9.86
2019-05-11T20:31:19.968Z,9.80
2019-05-11T20:33:48.380Z,9.80
2019-05-11T20:36:17.758Z,9.80
2019-05-11T20:38:47.601Z,9.74
2019-05-11T20:41:16.247Z,9.70
2019-05-11T20:43:45.357Z,9.71
2019-05-11T20:46:13.843Z,9.70
2019-05-11T20:48:42.227Z,9.66
2019-05-11T20:51:10.623Z,9.62
2019-05-11T20:53:38.936Z,9.59
2019-05-11T20:56:08.577Z,9.57
2019-05-11T20:58:54.852Z,9.56
2019-05-11T21:01:23.862Z,9.51
2019-05-11T21:03:52.142Z,9.48
2019-05-11T21:06:20.490Z,9.47
2019-05-11T21:08:48.767Z,9.46
2019-05-11T21:11:18.022Z,9.45
2019-05-11T21:13:48.132Z,9.41
2019-05-11T21:16:16.634Z,9.37
2019-05-11T21:18:45.082Z,9.31
2019-05-11T21:21:13.425Z,9.29
2019-05-11T21:23:41.702Z,9.25
2019-05-11T21:26:10.104Z,9.22
2019-05-11T21:28:38.393Z,9.18
2019-05-11T21:31:08.052Z,9.17
2019-05-11T21:33:37.938Z,9.18
2019-05-11T21:36:08.667Z,9.12
2019-05-11T21:38:38.503Z,9.10
2019-05-11T21:41:08.601Z,9.05
2019-05-11T21:43:37.641Z,9.07
2019-05-11T21:46:08.176Z,9.05
2019-05-11T21:48:38.449Z,9.02
2019-05-11T21:51:08.515Z,9.00
2019-05-11T21:53:38.156Z,8.97
2019-05-11T21:56:08.159Z,8.92
2019-05-11T21:58:37.836Z,8.85
2019-05-11T22:01:08.914Z,8.76
2019-05-11T22:03:38.267Z,8.72
2019-05-11T22:06:08.585Z,8.70
2019-05-11T22:08:36.750Z,8.67
2019-05-11T22:11:08.728Z,8.65
2019-05-11T22:13:37.872Z,8.61
2019-05-11T22:16:08.497Z,8.60
2019-05-11T22:18:38.056Z,8.58
2019-05-11T22:21:08.601Z,8.57
2019-05-11T22:23:38.450Z,8.56
2019-05-11T22:26:07.760Z,8.52
2019-05-11T22:28:38.958Z,8.49
2019-05-11T22:31:07.842Z,8.46
2019-05-11T22:33:38.411Z,8.43
2019-05-11T22:36:06.206Z,8.39
2019-05-11T22:38:34.731Z,8.32
2019-05-11T22:41:03.014Z,8.28
2019-05-11T22:43:31.284Z,8.24
2019-05-11T22:45:59.591Z,8.20
2019-05-11T22:48:27.892Z,8.15
2019-05-11T22:50:58.480Z,8.15
2019-05-11T22:53:41.739Z,8.08
2019-05-11T22:55:56.319Z,8.02
2019-05-11T22:58:24.616Z,7.99
2019-05-11T23:00:52.912Z,7.95
2019-05-11T23:03:22.902Z,7.89
2019-05-11T23:05:52.122Z,7.83
2019-05-11T23:08:20.462Z,7.78
2019-05-11T23:10:48.885Z,7.75
2019-05-11T23:13:18.690Z,7.73
2019-05-11T23:15:47.757Z,7.70
2019-05-11T23:18:18.018Z,7.60
2019-05-11T23:20:47.884Z,7.56
2019-05-11T23:23:17.789Z,7.51
2019-05-11T23:25:46.487Z,7.47
2019-05-11T23:28:14.780Z,7.46
2019-05-11T23:30:43.187Z,7.41
2019-05-11T23:33:11.628Z,7.43
2019-05-11T23:35:39.903Z,7.39
2019-05-11T23:38:08.211Z,7.38
2019-05-11T23:40:37.999Z,7.39
2019-05-11T23:43:08.573Z,7.37
2019-05-11T23:45:38.187Z,7.37
2019-05-11T23:48:06.632Z,7.29
2019-05-11T23:50:34.921Z,7.28
2019-05-11T23:53:06.488Z,7.21
2019-05-11T23:55:33.222Z,7.19
2019-05-11T23:58:01.563Z,7.15
